sensor_id;sensor_type;location;lat;lon;timestamp;temperature;humidity
2579;DHT22;1299;48.282;14.398;2023-07-09T00:00:52;20.20;99.90
2579;DHT22;1299;48.282;14.398;2023-07-09T00:03:19;20.20;99.90
2579;DHT22;1299;48.282;14.398;2023-07-09T00:05:48;20.20;99.90
2579;DHT22;1299;48.282;14.398;2023-07-09T00:08:24;20.30;99.90
2579;DHT22;1299;48.282;14.398;2023-07-09T00:10:54;20.20;99.90
2579;DHT22;1299;48.282;14.398;2023-07-09T00:13:22;20.20;99.90
2579;DHT22;1299;48.282;14.398;2023-07-09T00:15:49;20.20;99.90
2579;DHT22;1299;48.282;14.398;2023-07-09T00:18:16;20.10;99.90
2579;DHT22;1299;48.282;14.398;2023-07-09T00:20:43;20.10;99.90
2579;DHT22;1299;48.282;14.398;2023-07-09T00:23:13;20.10;99.90
2579;DHT22;1299;48.282;14.398;2023-07-09T00:25:45;20.20;99.90
2579;DHT22;1299;48.282;14.398;2023-07-09T00:28:14;20.10;99.90
2579;DHT22;1299;48.282;14.398;2023-07-09T00:30:41;20.10;99.90
2579;DHT22;1299;48.282;14.398;2023-07-09T00:33:11;20.10;99.90
2579;DHT22;1299;48.282;14.398;2023-07-09T00:35:39;20.10;99.90
2579;DHT22;1299;48.282;14.398;2023-07-09T00:38:12;20.00;99.90
2579;DHT22;1299;48.282;14.398;2023-07-09T00:40:46;20.00;99.90
2579;DHT22;1299;48.282;14.398;2023-07-09T00:43:16;20.00;99.90
2579;DHT22;1299;48.282;14.398;2023-07-09T00:45:43;20.00;99.90
2579;DHT22;1299;48.282;14.398;2023-07-09T00:48:14;20.00;99.90
2579;DHT22;1299;48.282;14.398;2023-07-09T00:50:46;19.90;99.90
2579;DHT22;1299;48.282;14.398;2023-07-09T00:53:19;19.80;99.90
2579;DHT22;1299;48.282;14.398;2023-07-09T00:55:52;19.80;99.90
2579;DHT22;1299;48.282;14.398;2023-07-09T00:58:24;19.70;99.90
2579;DHT22;1299;48.282;14.398;2023-07-09T01:00:56;19.60;99.90
2579;DHT22;1299;48.282;14.398;2023-07-09T01:03:27;19.60;99.90
2579;DHT22;1299;48.282;14.398;2023-07-09T01:05:57;19.60;99.90
2579;DHT22;1299;48.282;14.398;2023-07-09T01:08:24;19.60;99.90
2579;DHT22;1299;48.282;14.398;2023-07-09T01:10:56;19.60;99.90
2579;DHT22;1299;48.282;14.398;2023-07-09T01:13:25;19.60;99.90
2579;DHT22;1299;48.282;14.398;2023-07-09T01:15:53;19.60;99.90
2579;DHT22;1299;48.282;14.398;2023-07-09T01:18:21;19.60;99.90
2579;DHT22;1299;48.282;14.398;2023-07-09T01:20:50;19.60;99.90
2579;DHT22;1299;48.282;14.398;2023-07-09T01:23:20;19.50;99.90
2579;DHT22;1299;48.282;14.398;2023-07-09T01:25:50;19.60;99.90
2579;DHT22;1299;48.282;14.398;2023-07-09T01:28:18;19.60;99.90
2579;DHT22;1299;48.282;14.398;2023-07-09T01:30:47;19.70;99.90
2579;DHT22;1299;48.282;14.398;2023-07-09T01:33:20;19.70;99.90
2579;DHT22;1299;48.282;14.398;2023-07-09T01:35:48;19.70;99.90
2579;DHT22;1299;48.282;14.398;2023-07-09T01:38:15;19.80;99.90
2579;DHT22;1299;48.282;14.398;2023-07-09T01:40:44;19.70;99.90
2579;DHT22;1299;48.282;14.398;2023-07-09T01:43:12;19.80;99.90
2579;DHT22;1299;48.282;14.398;2023-07-09T01:45:39;19.80;99.90
2579;DHT22;1299;48.282;14.398;2023-07-09T01:48:06;19.80;99.90
2579;DHT22;1299;48.282;14.398;2023-07-09T01:50:41;19.70;99.90
2579;DHT22;1299;48.282;14.398;2023-07-09T01:53:09;19.80;99.90
2579;DHT22;1299;48.282;14.398;2023-07-09T01:55:37;19.80;99.90
2579;DHT22;1299;48.282;14.398;2023-07-09T01:58:05;19.80;99.90
2579;DHT22;1299;48.282;14.398;2023-07-09T02:00:34;19.90;99.90
2579;DHT22;1299;48.282;14.398;2023-07-09T02:03:01;19.90;99.90
2579;DHT22;1299;48.282;14.398;2023-07-09T02:05:31;19.90;99.90
2579;DHT22;1299;48.282;14.398;2023-07-09T02:07:58;20.00;99.90
2579;DHT22;1299;48.282;14.398;2023-07-09T02:10:26;20.00;99.90
2579;DHT22;1299;48.282;14.398;2023-07-09T02:12:53;20.00;99.90
2579;DHT22;1299;48.282;14.398;2023-07-09T02:15:22;20.00;99.90
2579;DHT22;1299;48.282;14.398;2023-07-09T02:17:49;19.90;99.90
2579;DHT22;1299;48.282;14.398;2023-07-09T02:20:18;19.90;99.90
2579;DHT22;1299;48.282;14.398;2023-07-09T02:22:45;19.90;99.90
2579;DHT22;1299;48.282;14.398;2023-07-09T02:25:12;19.80;99.90
2579;DHT22;1299;48.282;14.398;2023-07-09T02:27:39;19.80;99.90
2579;DHT22;1299;48.282;14.398;2023-07-09T02:30:07;19.80;99.90
2579;DHT22;1299;48.282;14.398;2023-07-09T02:32:38;19.90;99.90
2579;DHT22;1299;48.282;14.398;2023-07-09T02:35:05;19.90;99.90
2579;DHT22;1299;48.282;14.398;2023-07-09T02:37:32;19.90;99.90
2579;DHT22;1299;48.282;14.398;2023-07-09T02:39:59;19.90;99.90
2579;DHT22;1299;48.282;14.398;2023-07-09T02:42:26;19.90;99.90
2579;DHT22;1299;48.282;14.398;2023-07-09T02:44:53;19.90;99.90
2579;DHT22;1299;48.282;14.398;2023-07-09T02:47:20;19.90;99.90
2579;DHT22;1299;48.282;14.398;2023-07-09T02:49:49;19.90;99.90
2579;DHT22;1299;48.282;14.398;2023-07-09T02:52:16;19.90;99.90
2579;DHT22;1299;48.282;14.398;2023-07-09T02:54:43;19.90;99.90
2579;DHT22;1299;48.282;14.398;2023-07-09T02:57:11;19.90;99.90
2579;DHT22;1299;48.282;14.398;2023-07-09T02:59:38;19.90;99.90
2579;DHT22;1299;48.282;14.398;2023-07-09T03:02:05;19.90;99.90
2579;DHT22;1299;48.282;14.398;2023-07-09T03:04:32;19.90;99.90
2579;DHT22;1299;48.282;14.398;2023-07-09T03:07:00;19.90;99.90
2579;DHT22;1299;48.282;14.398;2023-07-09T03:09:27;19.90;99.90
2579;DHT22;1299;48.282;14.398;2023-07-09T03:11:54;19.90;99.90
2579;DHT22;1299;48.282;14.398;2023-07-09T03:14:22;20.00;99.90
2579;DHT22;1299;48.282;14.398;2023-07-09T03:16:49;19.90;99.90
2579;DHT22;1299;48.282;14.398;2023-07-09T03:19:16;19.90;99.90
2579;DHT22;1299;48.282;14.398;2023-07-09T03:21:43;19.90;99.90
2579;DHT22;1299;48.282;14.398;2023-07-09T03:24:12;19.80;99.90
2579;DHT22;1299;48.282;14.398;2023-07-09T03:26:40;19.80;99.90
2579;DHT22;1299;48.282;14.398;2023-07-09T03:29:07;19.70;99.90
2579;DHT22;1299;48.282;14.398;2023-07-09T03:31:34;19.70;99.90
2579;DHT22;1299;48.282;14.398;2023-07-09T03:34:01;19.70;99.90
2579;DHT22;1299;48.282;14.398;2023-07-09T03:36:29;19.70;99.90
2579;DHT22;1299;48.282;14.398;2023-07-09T03:38:56;19.70;99.90
2579;DHT22;1299;48.282;14.398;2023-07-09T03:41:24;19.60;99.90
2579;DHT22;1299;48.282;14.398;2023-07-09T03:43:52;19.50;99.90
2579;DHT22;1299;48.282;14.398;2023-07-09T03:46:19;19.40;99.90
2579;DHT22;1299;48.282;14.398;2023-07-09T03:48:46;19.40;99.90
2579;DHT22;1299;48.282;14.398;2023-07-09T03:51:16;19.40;99.90
2579;DHT22;1299;48.282;14.398;2023-07-09T03:53:43;19.40;99.90
2579;DHT22;1299;48.282;14.398;2023-07-09T03:56:10;19.30;99.90
2579;DHT22;1299;48.282;14.398;2023-07-09T03:58:38;19.30;99.90
2579;DHT22;1299;48.282;14.398;2023-07-09T04:01:05;19.30;99.90
2579;DHT22;1299;48.282;14.398;2023-07-09T04:03:32;19.30;99.90
2579;DHT22;1299;48.282;14.398;2023-07-09T04:05:59;19.30;99.90
2579;DHT22;1299;48.282;14.398;2023-07-09T04:08:26;19.30;99.90
2579;DHT22;1299;48.282;14.398;2023-07-09T04:10:54;19.30;99.90
2579;DHT22;1299;48.282;14.398;2023-07-09T04:13:22;19.30;99.90
2579;DHT22;1299;48.282;14.398;2023-07-09T04:15:50;19.30;99.90
2579;DHT22;1299;48.282;14.398;2023-07-09T04:18:17;19.30;99.90
2579;DHT22;1299;48.282;14.398;2023-07-09T04:20:47;19.30;99.90
2579;DHT22;1299;48.282;14.398;2023-07-09T04:23:15;19.40;99.90
2579;DHT22;1299;48.282;14.398;2023-07-09T04:25:42;19.30;99.90
2579;DHT22;1299;48.282;14.398;2023-07-09T04:28:09;19.30;99.90
2579;DHT22;1299;48.282;14.398;2023-07-09T04:30:36;19.30;99.90
2579;DHT22;1299;48.282;14.398;2023-07-09T04:33:04;19.30;99.90
2579;DHT22;1299;48.282;14.398;2023-07-09T04:35:31;19.30;99.90
2579;DHT22;1299;48.282;14.398;2023-07-09T04:37:58;19.30;99.90
2579;DHT22;1299;48.282;14.398;2023-07-09T04:40:25;19.40;99.90
2579;DHT22;1299;48.282;14.398;2023-07-09T04:42:52;19.20;99.90
2579;DHT22;1299;48.282;14.398;2023-07-09T04:45:19;19.40;99.90
2579;DHT22;1299;48.282;14.398;2023-07-09T04:47:46;19.50;99.90
2579;DHT22;1299;48.282;14.398;2023-07-09T04:50:14;19.60;99.90
2579;DHT22;1299;48.282;14.398;2023-07-09T04:52:41;19.70;99.90
2579;DHT22;1299;48.282;14.398;2023-07-09T04:55:09;19.60;99.90
2579;DHT22;1299;48.282;14.398;2023-07-09T04:57:36;19.90;99.90
2579;DHT22;1299;48.282;14.398;2023-07-09T05:00:03;20.00;99.90
2579;DHT22;1299;48.282;14.398;2023-07-09T05:02:31;20.10;99.90
2579;DHT22;1299;48.282;14.398;2023-07-09T05:04:58;20.10;99.90
2579;DHT22;1299;48.282;14.398;2023-07-09T05:07:27;20.30;99.90
2579;DHT22;1299;48.282;14.398;2023-07-09T05:09:53;20.50;99.90
2579;DHT22;1299;48.282;14.398;2023-07-09T05:12:20;20.50;99.90
2579;DHT22;1299;48.282;14.398;2023-07-09T05:14:47;20.60;99.90
2579;DHT22;1299;48.282;14.398;2023-07-09T05:17:14;21.00;99.90
2579;DHT22;1299;48.282;14.398;2023-07-09T05:19:42;21.30;99.90
2579;DHT22;1299;48.282;14.398;2023-07-09T05:22:09;21.40;99.90
2579;DHT22;1299;48.282;14.398;2023-07-09T05:24:37;21.40;99.90
2579;DHT22;1299;48.282;14.398;2023-07-09T05:27:04;21.20;99.90
2579;DHT22;1299;48.282;14.398;2023-07-09T05:29:31;21.40;99.90
2579;DHT22;1299;48.282;14.398;2023-07-09T05:31:58;21.80;99.90
2579;DHT22;1299;48.282;14.398;2023-07-09T05:34:25;22.10;99.90
2579;DHT22;1299;48.282;14.398;2023-07-09T05:36:52;22.20;99.90
2579;DHT22;1299;48.282;14.398;2023-07-09T05:39:19;22.20;99.90
2579;DHT22;1299;48.282;14.398;2023-07-09T05:41:47;22.70;99.90
2579;DHT22;1299;48.282;14.398;2023-07-09T05:44:14;22.80;99.90
2579;DHT22;1299;48.282;14.398;2023-07-09T05:46:41;22.80;99.90
2579;DHT22;1299;48.282;14.398;2023-07-09T05:49:08;23.20;99.90
2579;DHT22;1299;48.282;14.398;2023-07-09T05:51:35;23.70;99.90
2579;DHT22;1299;48.282;14.398;2023-07-09T05:54:02;24.00;99.90
2579;DHT22;1299;48.282;14.398;2023-07-09T05:56:29;24.20;99.90
2579;DHT22;1299;48.282;14.398;2023-07-09T05:58:58;24.30;99.90
2579;DHT22;1299;48.282;14.398;2023-07-09T06:01:25;24.40;99.90
2579;DHT22;1299;48.282;14.398;2023-07-09T06:03:53;24.50;99.90
2579;DHT22;1299;48.282;14.398;2023-07-09T06:06:20;24.60;99.90
2579;DHT22;1299;48.282;14.398;2023-07-09T06:08:47;24.60;99.90
2579;DHT22;1299;48.282;14.398;2023-07-09T06:11:15;24.90;99.90
2579;DHT22;1299;48.282;14.398;2023-07-09T06:13:43;24.60;99.90
2579;DHT22;1299;48.282;14.398;2023-07-09T06:16:11;24.60;99.90
2579;DHT22;1299;48.282;14.398;2023-07-09T06:18:38;24.80;99.90
2579;DHT22;1299;48.282;14.398;2023-07-09T06:21:06;24.90;99.90
2579;DHT22;1299;48.282;14.398;2023-07-09T06:23:33;25.00;99.90
2579;DHT22;1299;48.282;14.398;2023-07-09T06:26:00;25.10;99.90
2579;DHT22;1299;48.282;14.398;2023-07-09T06:28:28;25.10;99.90
2579;DHT22;1299;48.282;14.398;2023-07-09T06:30:55;25.30;99.90
2579;DHT22;1299;48.282;14.398;2023-07-09T06:33:24;25.50;99.90
2579;DHT22;1299;48.282;14.398;2023-07-09T06:35:53;25.70;99.90
2579;DHT22;1299;48.282;14.398;2023-07-09T06:38:20;26.00;99.90
2579;DHT22;1299;48.282;14.398;2023-07-09T06:40:48;25.70;99.90
2579;DHT22;1299;48.282;14.398;2023-07-09T06:43:16;25.80;99.90
2579;DHT22;1299;48.282;14.398;2023-07-09T06:45:50;25.90;99.90
2579;DHT22;1299;48.282;14.398;2023-07-09T06:48:17;25.80;99.50
2579;DHT22;1299;48.282;14.398;2023-07-09T06:50:46;26.00;99.20
2579;DHT22;1299;48.282;14.398;2023-07-09T06:53:14;25.80;97.40
2579;DHT22;1299;48.282;14.398;2023-07-09T06:55:41;26.10;97.40
2579;DHT22;1299;48.282;14.398;2023-07-09T06:58:08;26.10;94.50
2579;DHT22;1299;48.282;14.398;2023-07-09T07:00:36;26.30;94.60
2579;DHT22;1299;48.282;14.398;2023-07-09T07:03:04;26.40;94.50
2579;DHT22;1299;48.282;14.398;2023-07-09T07:05:31;26.50;94.50
2579;DHT22;1299;48.282;14.398;2023-07-09T07:08:00;26.70;93.90
2579;DHT22;1299;48.282;14.398;2023-07-09T07:10:28;26.90;95.20
2579;DHT22;1299;48.282;14.398;2023-07-09T07:12:55;26.70;95.10
2579;DHT22;1299;48.282;14.398;2023-07-09T07:15:22;26.70;94.30
2579;DHT22;1299;48.282;14.398;2023-07-09T07:17:49;26.70;95.00
2579;DHT22;1299;48.282;14.398;2023-07-09T07:20:17;26.90;94.70
2579;DHT22;1299;48.282;14.398;2023-07-09T07:22:44;26.90;94.60
2579;DHT22;1299;48.282;14.398;2023-07-09T07:25:12;26.90;93.40
2579;DHT22;1299;48.282;14.398;2023-07-09T07:27:40;26.90;93.80
2579;DHT22;1299;48.282;14.398;2023-07-09T07:30:08;27.00;93.60
2579;DHT22;1299;48.282;14.398;2023-07-09T07:32:37;27.00;93.50
2579;DHT22;1299;48.282;14.398;2023-07-09T07:35:04;27.30;92.50
2579;DHT22;1299;48.282;14.398;2023-07-09T07:37:31;26.90;93.40
2579;DHT22;1299;48.282;14.398;2023-07-09T07:39:58;27.40;93.40
2579;DHT22;1299;48.282;14.398;2023-07-09T07:42:27;27.60;92.80
2579;DHT22;1299;48.282;14.398;2023-07-09T07:44:54;27.70;91.90
2579;DHT22;1299;48.282;14.398;2023-07-09T07:47:20;27.60;92.20
2579;DHT22;1299;48.282;14.398;2023-07-09T07:49:47;27.80;92.10
2579;DHT22;1299;48.282;14.398;2023-07-09T07:52:15;28.00;92.80
2579;DHT22;1299;48.282;14.398;2023-07-09T07:54:42;28.30;92.20
2579;DHT22;1299;48.282;14.398;2023-07-09T07:57:09;28.00;92.60
2579;DHT22;1299;48.282;14.398;2023-07-09T07:59:38;27.90;92.80
2579;DHT22;1299;48.282;14.398;2023-07-09T08:02:08;28.00;92.80
2579;DHT22;1299;48.282;14.398;2023-07-09T08:04:37;28.00;92.70
2579;DHT22;1299;48.282;14.398;2023-07-09T08:07:04;27.70;92.80
2579;DHT22;1299;48.282;14.398;2023-07-09T08:09:33;28.10;93.30
2579;DHT22;1299;48.282;14.398;2023-07-09T08:12:00;28.20;92.30
2579;DHT22;1299;48.282;14.398;2023-07-09T08:14:27;28.10;91.70
2579;DHT22;1299;48.282;14.398;2023-07-09T08:16:55;28.10;91.20
2579;DHT22;1299;48.282;14.398;2023-07-09T08:19:22;28.30;91.00
2579;DHT22;1299;48.282;14.398;2023-07-09T08:21:49;28.40;91.00
2579;DHT22;1299;48.282;14.398;2023-07-09T08:24:16;28.40;91.90
2579;DHT22;1299;48.282;14.398;2023-07-09T08:26:43;28.80;91.30
2579;DHT22;1299;48.282;14.398;2023-07-09T08:29:10;29.00;91.60
2579;DHT22;1299;48.282;14.398;2023-07-09T08:31:37;28.90;90.80
2579;DHT22;1299;48.282;14.398;2023-07-09T08:34:06;29.00;91.10
2579;DHT22;1299;48.282;14.398;2023-07-09T08:36:34;29.00;91.40
2579;DHT22;1299;48.282;14.398;2023-07-09T08:39:02;29.00;90.50
2579;DHT22;1299;48.282;14.398;2023-07-09T08:41:39;29.20;90.30
2579;DHT22;1299;48.282;14.398;2023-07-09T08:44:37;29.50;90.00
2579;DHT22;1299;48.282;14.398;2023-07-09T08:47:11;29.80;90.70
2579;DHT22;1299;48.282;14.398;2023-07-09T08:49:46;29.40;90.20
2579;DHT22;1299;48.282;14.398;2023-07-09T08:52:23;29.00;90.60
2579;DHT22;1299;48.282;14.398;2023-07-09T08:54:52;29.00;90.70
2579;DHT22;1299;48.282;14.398;2023-07-09T08:57:24;29.30;90.00
2579;DHT22;1299;48.282;14.398;2023-07-09T08:59:56;29.70;90.80
2579;DHT22;1299;48.282;14.398;2023-07-09T09:02:31;28.70;90.00
2579;DHT22;1299;48.282;14.398;2023-07-09T09:05:02;29.40;90.70
2579;DHT22;1299;48.282;14.398;2023-07-09T09:07:39;29.60;90.80
2579;DHT22;1299;48.282;14.398;2023-07-09T09:10:11;29.20;90.80
2579;DHT22;1299;48.282;14.398;2023-07-09T09:12:46;29.20;90.60
2579;DHT22;1299;48.282;14.398;2023-07-09T09:15:19;29.40;90.20
2579;DHT22;1299;48.282;14.398;2023-07-09T09:17:51;29.10;90.10
2579;DHT22;1299;48.282;14.398;2023-07-09T09:20:21;29.70;90.80
2579;DHT22;1299;48.282;14.398;2023-07-09T09:22:52;30.30;91.00
2579;DHT22;1299;48.282;14.398;2023-07-09T09:25:24;29.80;89.00
2579;DHT22;1299;48.282;14.398;2023-07-09T09:27:54;29.80;89.40
2579;DHT22;1299;48.282;14.398;2023-07-09T09:30:23;29.80;88.70
2579;DHT22;1299;48.282;14.398;2023-07-09T09:32:54;29.80;90.70
2579;DHT22;1299;48.282;14.398;2023-07-09T09:35:28;30.10;88.30
2579;DHT22;1299;48.282;14.398;2023-07-09T09:37:57;30.30;88.80
2579;DHT22;1299;48.282;14.398;2023-07-09T09:40:26;30.70;89.20
2579;DHT22;1299;48.282;14.398;2023-07-09T09:42:55;30.70;87.80
2579;DHT22;1299;48.282;14.398;2023-07-09T09:45:27;30.50;88.80
2579;DHT22;1299;48.282;14.398;2023-07-09T09:47:59;30.40;87.20
2579;DHT22;1299;48.282;14.398;2023-07-09T09:50:31;30.80;87.90
2579;DHT22;1299;48.282;14.398;2023-07-09T09:52:59;30.60;87.10
2579;DHT22;1299;48.282;14.398;2023-07-09T09:55:30;30.70;86.50
2579;DHT22;1299;48.282;14.398;2023-07-09T09:57:58;30.90;86.20
2579;DHT22;1299;48.282;14.398;2023-07-09T10:00:27;30.90;85.40
2579;DHT22;1299;48.282;14.398;2023-07-09T10:02:58;30.90;86.10
2579;DHT22;1299;48.282;14.398;2023-07-09T10:05:31;30.70;84.10
2579;DHT22;1299;48.282;14.398;2023-07-09T10:08:03;31.20;83.20
2579;DHT22;1299;48.282;14.398;2023-07-09T10:10:34;31.50;83.80
2579;DHT22;1299;48.282;14.398;2023-07-09T10:13:09;31.70;82.90
2579;DHT22;1299;48.282;14.398;2023-07-09T10:15:43;31.80;84.60
2579;DHT22;1299;48.282;14.398;2023-07-09T10:18:23;31.40;82.80
2579;DHT22;1299;48.282;14.398;2023-07-09T10:21:05;31.50;81.50
2579;DHT22;1299;48.282;14.398;2023-07-09T10:23:39;32.00;82.00
2579;DHT22;1299;48.282;14.398;2023-07-09T10:26:13;32.30;81.60
2579;DHT22;1299;48.282;14.398;2023-07-09T10:28:56;32.50;80.60
2579;DHT22;1299;48.282;14.398;2023-07-09T10:31:33;32.10;80.10
2579;DHT22;1299;48.282;14.398;2023-07-09T10:34:09;32.20;78.40
2579;DHT22;1299;48.282;14.398;2023-07-09T10:36:54;32.10;78.30
2579;DHT22;1299;48.282;14.398;2023-07-09T10:39:28;31.50;80.20
2579;DHT22;1299;48.282;14.398;2023-07-09T10:41:59;32.40;80.40
2579;DHT22;1299;48.282;14.398;2023-07-09T10:44:32;32.70;79.90
2579;DHT22;1299;48.282;14.398;2023-07-09T10:47:03;32.50;79.10
2579;DHT22;1299;48.282;14.398;2023-07-09T10:49:34;32.70;79.40
2579;DHT22;1299;48.282;14.398;2023-07-09T10:52:06;32.80;76.40
2579;DHT22;1299;48.282;14.398;2023-07-09T10:54:41;32.70;77.60
2579;DHT22;1299;48.282;14.398;2023-07-09T10:57:14;33.20;75.60
2579;DHT22;1299;48.282;14.398;2023-07-09T10:59:47;33.20;76.20
2579;DHT22;1299;48.282;14.398;2023-07-09T11:02:24;32.80;75.00
2579;DHT22;1299;48.282;14.398;2023-07-09T11:04:54;32.60;73.90
2579;DHT22;1299;48.282;14.398;2023-07-09T11:07:27;32.60;73.00
2579;DHT22;1299;48.282;14.398;2023-07-09T11:09:57;32.50;71.50
2579;DHT22;1299;48.282;14.398;2023-07-09T11:12:29;32.60;74.30
2579;DHT22;1299;48.282;14.398;2023-07-09T11:15:01;32.70;73.10
2579;DHT22;1299;48.282;14.398;2023-07-09T11:17:30;32.90;69.40
2579;DHT22;1299;48.282;14.398;2023-07-09T11:20:06;33.20;72.20
2579;DHT22;1299;48.282;14.398;2023-07-09T11:22:40;33.20;68.40
2579;DHT22;1299;48.282;14.398;2023-07-09T11:25:09;33.40;70.00
2579;DHT22;1299;48.282;14.398;2023-07-09T11:27:46;33.60;67.40
2579;DHT22;1299;48.282;14.398;2023-07-09T11:30:20;33.60;68.60
2579;DHT22;1299;48.282;14.398;2023-07-09T11:32:53;33.70;68.20
2579;DHT22;1299;48.282;14.398;2023-07-09T11:35:21;33.60;65.30
2579;DHT22;1299;48.282;14.398;2023-07-09T11:37:51;33.50;65.80
2579;DHT22;1299;48.282;14.398;2023-07-09T11:40:19;33.30;65.20
2579;DHT22;1299;48.282;14.398;2023-07-09T11:42:53;33.50;63.10
2579;DHT22;1299;48.282;14.398;2023-07-09T11:45:24;33.70;61.90
2579;DHT22;1299;48.282;14.398;2023-07-09T11:47:57;33.50;60.00
2579;DHT22;1299;48.282;14.398;2023-07-09T11:50:32;33.70;61.10
2579;DHT22;1299;48.282;14.398;2023-07-09T11:53:03;34.10;60.90
2579;DHT22;1299;48.282;14.398;2023-07-09T11:55:39;33.90;58.90
2579;DHT22;1299;48.282;14.398;2023-07-09T11:58:09;33.90;61.00
2579;DHT22;1299;48.282;14.398;2023-07-09T12:00:39;34.20;58.70
2579;DHT22;1299;48.282;14.398;2023-07-09T12:03:10;34.40;59.20
2579;DHT22;1299;48.282;14.398;2023-07-09T12:05:38;34.20;56.90
2579;DHT22;1299;48.282;14.398;2023-07-09T12:08:08;34.10;57.90
2579;DHT22;1299;48.282;14.398;2023-07-09T12:10:36;34.20;56.70
2579;DHT22;1299;48.282;14.398;2023-07-09T12:13:03;34.40;58.80
2579;DHT22;1299;48.282;14.398;2023-07-09T12:15:30;34.80;60.20
2579;DHT22;1299;48.282;14.398;2023-07-09T12:17:59;34.30;58.90
2579;DHT22;1299;48.282;14.398;2023-07-09T12:20:30;34.30;58.50
2579;DHT22;1299;48.282;14.398;2023-07-09T12:22:57;34.40;58.90
2579;DHT22;1299;48.282;14.398;2023-07-09T12:25:28;34.50;58.70
2579;DHT22;1299;48.282;14.398;2023-07-09T12:27:58;34.60;57.30
2579;DHT22;1299;48.282;14.398;2023-07-09T12:30:25;34.50;56.50
2579;DHT22;1299;48.282;14.398;2023-07-09T12:32:52;34.40;55.70
2579;DHT22;1299;48.282;14.398;2023-07-09T12:35:19;34.60;55.70
2579;DHT22;1299;48.282;14.398;2023-07-09T12:37:48;35.00;56.90
2579;DHT22;1299;48.282;14.398;2023-07-09T12:40:21;35.30;56.50
2579;DHT22;1299;48.282;14.398;2023-07-09T12:42:50;35.00;56.00
2579;DHT22;1299;48.282;14.398;2023-07-09T12:45:19;34.50;56.00
2579;DHT22;1299;48.282;14.398;2023-07-09T12:47:47;34.50;57.40
2579;DHT22;1299;48.282;14.398;2023-07-09T12:50:27;34.40;57.50
2579;DHT22;1299;48.282;14.398;2023-07-09T12:53:00;34.30;56.10
2579;DHT22;1299;48.282;14.398;2023-07-09T12:55:28;34.40;56.10
2579;DHT22;1299;48.282;14.398;2023-07-09T12:57:59;34.30;55.90
2579;DHT22;1299;48.282;14.398;2023-07-09T13:00:29;34.30;56.00
2579;DHT22;1299;48.282;14.398;2023-07-09T13:02:58;34.80;56.70
2579;DHT22;1299;48.282;14.398;2023-07-09T13:05:26;34.60;54.70
2579;DHT22;1299;48.282;14.398;2023-07-09T13:07:58;34.40;55.40
2579;DHT22;1299;48.282;14.398;2023-07-09T13:10:27;34.20;56.20
2579;DHT22;1299;48.282;14.398;2023-07-09T13:13:01;34.20;56.00
2579;DHT22;1299;48.282;14.398;2023-07-09T13:15:29;34.40;56.80
2579;DHT22;1299;48.282;14.398;2023-07-09T13:17:58;34.50;57.30
2579;DHT22;1299;48.282;14.398;2023-07-09T13:20:26;34.50;57.10
2579;DHT22;1299;48.282;14.398;2023-07-09T13:22:54;34.50;58.80
2579;DHT22;1299;48.282;14.398;2023-07-09T13:25:21;34.70;58.70
2579;DHT22;1299;48.282;14.398;2023-07-09T13:27:48;34.90;57.20
2579;DHT22;1299;48.282;14.398;2023-07-09T13:30:18;35.30;58.20
2579;DHT22;1299;48.282;14.398;2023-07-09T13:32:46;35.60;58.90
2579;DHT22;1299;48.282;14.398;2023-07-09T13:35:16;35.90;58.30
2579;DHT22;1299;48.282;14.398;2023-07-09T13:37:44;35.30;56.40
2579;DHT22;1299;48.282;14.398;2023-07-09T13:40:13;35.50;57.20
2579;DHT22;1299;48.282;14.398;2023-07-09T13:42:40;35.60;57.30
2579;DHT22;1299;48.282;14.398;2023-07-09T13:45:18;35.40;57.80
2579;DHT22;1299;48.282;14.398;2023-07-09T13:47:45;35.10;57.40
2579;DHT22;1299;48.282;14.398;2023-07-09T13:50:14;34.90;56.20
2579;DHT22;1299;48.282;14.398;2023-07-09T13:52:42;35.00;57.00
2579;DHT22;1299;48.282;14.398;2023-07-09T13:55:16;34.90;57.20
2579;DHT22;1299;48.282;14.398;2023-07-09T13:57:44;34.70;57.70
2579;DHT22;1299;48.282;14.398;2023-07-09T14:00:12;34.90;58.20
2579;DHT22;1299;48.282;14.398;2023-07-09T14:02:41;35.30;58.70
2579;DHT22;1299;48.282;14.398;2023-07-09T14:05:10;35.40;58.20
2579;DHT22;1299;48.282;14.398;2023-07-09T14:07:39;35.20;56.90
2579;DHT22;1299;48.282;14.398;2023-07-09T14:10:10;35.00;56.70
2579;DHT22;1299;48.282;14.398;2023-07-09T14:12:40;35.30;56.70
2579;DHT22;1299;48.282;14.398;2023-07-09T14:15:13;35.40;56.20
2579;DHT22;1299;48.282;14.398;2023-07-09T14:17:42;35.30;57.40
2579;DHT22;1299;48.282;14.398;2023-07-09T14:20:14;35.10;55.70
2579;DHT22;1299;48.282;14.398;2023-07-09T14:22:41;35.00;55.50
2579;DHT22;1299;48.282;14.398;2023-07-09T14:25:16;34.80;55.60
2579;DHT22;1299;48.282;14.398;2023-07-09T14:27:44;34.70;55.10
2579;DHT22;1299;48.282;14.398;2023-07-09T14:30:14;34.60;55.60
2579;DHT22;1299;48.282;14.398;2023-07-09T14:32:44;34.70;55.60
2579;DHT22;1299;48.282;14.398;2023-07-09T14:35:14;34.60;54.90
2579;DHT22;1299;48.282;14.398;2023-07-09T14:37:42;34.60;56.70
2579;DHT22;1299;48.282;14.398;2023-07-09T14:40:10;34.40;56.50
2579;DHT22;1299;48.282;14.398;2023-07-09T14:42:37;34.50;56.30
2579;DHT22;1299;48.282;14.398;2023-07-09T14:45:09;34.80;56.00
2579;DHT22;1299;48.282;14.398;2023-07-09T14:47:43;35.10;55.40
2579;DHT22;1299;48.282;14.398;2023-07-09T14:50:10;34.70;56.60
2579;DHT22;1299;48.282;14.398;2023-07-09T14:52:38;34.30;55.90
2579;DHT22;1299;48.282;14.398;2023-07-09T14:55:12;34.10;56.40
2579;DHT22;1299;48.282;14.398;2023-07-09T14:57:39;34.40;56.00
2579;DHT22;1299;48.282;14.398;2023-07-09T15:00:08;34.40;56.10
2579;DHT22;1299;48.282;14.398;2023-07-09T15:02:41;34.30;56.00
2579;DHT22;1299;48.282;14.398;2023-07-09T15:05:14;33.80;56.40
2579;DHT22;1299;48.282;14.398;2023-07-09T15:07:41;33.90;56.60
2579;DHT22;1299;48.282;14.398;2023-07-09T15:10:12;33.80;58.20
2579;DHT22;1299;48.282;14.398;2023-07-09T15:12:39;34.40;61.20
2579;DHT22;1299;48.282;14.398;2023-07-09T15:15:13;34.70;62.80
2579;DHT22;1299;48.282;14.398;2023-07-09T15:17:41;34.90;58.50
2579;DHT22;1299;48.282;14.398;2023-07-09T15:20:14;35.20;58.30
2579;DHT22;1299;48.282;14.398;2023-07-09T15:22:42;35.30;57.10
2579;DHT22;1299;48.282;14.398;2023-07-09T15:25:16;35.40;56.90
2579;DHT22;1299;48.282;14.398;2023-07-09T15:27:50;35.50;57.60
2579;DHT22;1299;48.282;14.398;2023-07-09T15:30:26;35.50;56.90
2579;DHT22;1299;48.282;14.398;2023-07-09T15:32:58;35.30;55.70
2579;DHT22;1299;48.282;14.398;2023-07-09T15:35:33;34.20;56.70
2579;DHT22;1299;48.282;14.398;2023-07-09T15:38:16;34.00;58.00
2579;DHT22;1299;48.282;14.398;2023-07-09T15:40:48;34.20;58.10
2579;DHT22;1299;48.282;14.398;2023-07-09T15:43:18;34.60;57.70
2579;DHT22;1299;48.282;14.398;2023-07-09T15:45:49;34.80;57.00
2579;DHT22;1299;48.282;14.398;2023-07-09T15:48:22;35.20;58.40
2579;DHT22;1299;48.282;14.398;2023-07-09T15:50:52;35.20;57.20
2579;DHT22;1299;48.282;14.398;2023-07-09T15:53:20;35.40;57.90
2579;DHT22;1299;48.282;14.398;2023-07-09T15:55:48;35.50;58.10
2579;DHT22;1299;48.282;14.398;2023-07-09T15:58:20;35.40;59.00